createdAt,value
2019-04-20T00:01:28.063Z,94.20
2019-04-20T00:03:55.583Z,94.10
2019-04-20T00:06:27.105Z,94.10
2019-04-20T00:09:04.982Z,94.50
2019-04-20T00:11:41.472Z,94.70
2019-04-20T00:14:07.064Z,94.60
2019-04-20T00:16:33.995Z,94.50
2019-04-20T00:19:05.454Z,94.70
2019-04-20T00:21:47.335Z,94.80
2019-04-20T00:24:23.424Z,95.10
2019-04-20T00:27:13.716Z,95.20
2019-04-20T00:29:40.494Z,95.50
2019-04-20T00:32:02.493Z,95.50
2019-04-20T00:34:31.601Z,95.70
2019-04-20T00:36:58.037Z,96.10
2019-04-20T00:39:28.338Z,95.90
2019-04-20T00:42:03.499Z,95.80
2019-04-20T00:44:36.007Z,95.70
2019-04-20T00:47:15.974Z,95.80
2019-04-20T00:49:48.276Z,95.80
2019-04-20T00:54:39.156Z,96.00
2019-04-20T00:57:20.394Z,96.00
2019-04-20T00:59:59.113Z,96.10
2019-04-20T01:02:25.816Z,96.30
2019-04-20T01:05:04.174Z,96.20
2019-04-20T01:07:34.712Z,96.10
2019-04-20T01:10:04.962Z,96.20
2019-04-20T01:12:38.785Z,96.10
2019-04-20T01:15:11.804Z,96.60
2019-04-20T01:17:41.755Z,96.70
2019-04-20T01:20:13.185Z,96.90
2019-04-20T01:22:51.474Z,96.70
2019-04-20T01:25:22.165Z,97.00
2019-04-20T01:28:06.751Z,96.90
2019-04-20T01:30:28.207Z,97.20
2019-04-20T01:33:03.495Z,97.30
2019-04-20T01:35:40.932Z,97.30
2019-04-20T01:38:12.390Z,97.30
2019-04-20T01:40:27.864Z,97.20
2019-04-20T01:42:59.419Z,96.90
2019-04-20T01:45:35.516Z,97.00
2019-04-20T01:48:03.013Z,97.30
2019-04-20T01:50:37.943Z,97.40
2019-04-20T01:53:16.471Z,97.20
2019-04-20T01:55:51.104Z,97.10
2019-04-20T01:58:36.396Z,97.20
2019-04-20T02:01:18.698Z,97.20
2019-04-20T02:04:00.336Z,97.30
2019-04-20T02:06:41.861Z,97.10
2019-04-20T02:09:11.913Z,97.30
2019-04-20T02:11:42.612Z,97.30
2019-04-20T02:14:11.956Z,97.50
2019-04-20T02:16:47.400Z,97.60
2019-04-20T02:19:26.649Z,97.50
2019-04-20T02:21:59.307Z,97.70
2019-04-20T02:24:17.874Z,97.50
2019-04-20T02:26:50.066Z,97.60
2019-04-20T02:29:43.053Z,97.50
2019-04-20T02:32:24.024Z,97.60
2019-04-20T02:40:39.773Z,97.60
2019-04-20T02:43:09.595Z,97.60
2019-04-20T02:50:44.107Z,98.20
2019-04-20T02:55:48.439Z,98.30
2019-04-20T02:58:18.696Z,98.40
2019-04-20T03:00:44.458Z,98.10
2019-04-20T03:03:03.238Z,98.50
2019-04-20T03:05:33.163Z,98.40
2019-04-20T03:08:08.953Z,98.40
2019-04-20T03:10:53.530Z,98.10
2019-04-20T03:13:18.321Z,98.00
2019-04-20T03:15:51.833Z,98.10
2019-04-20T03:18:23.119Z,98.80
2019-04-20T03:20:53.058Z,98.70
2019-04-20T03:23:30.046Z,98.70
2019-04-20T03:26:07.785Z,98.60
2019-04-20T03:28:51.106Z,99.10
2019-04-20T03:31:41.035Z,99.00
2019-04-20T03:34:41.679Z,98.70
2019-04-20T03:36:34.899Z,99.20
2019-04-20T03:38:57.339Z,99.10
2019-04-20T03:41:22.656Z,99.20
2019-04-20T03:43:45.600Z,99.10
2019-04-20T03:46:19.269Z,99.00
2019-04-20T03:49:04.510Z,98.70
2019-04-20T03:51:39.814Z,99.20
2019-04-20T03:54:16.955Z,99.20
2019-04-20T03:57:22.403Z,99.00
2019-04-20T04:00:01.805Z,99.30
2019-04-20T04:02:57.585Z,99.40
2019-04-20T04:05:23.585Z,99.30
2019-04-20T04:07:45.558Z,99.10
2019-04-20T04:10:24.944Z,99.20
2019-04-20T04:13:09.534Z,99.10
2019-04-20T04:15:44.770Z,98.90
2019-04-20T04:18:21.880Z,99.20
2019-04-20T04:20:56.565Z,99.30
2019-04-20T04:23:38.061Z,99.40
2019-04-20T04:26:08.624Z,99.60
2019-04-20T04:28:40.898Z,99.40
2019-04-20T04:31:11.910Z,99.50
2019-04-20T04:36:13.548Z,99.00
2019-04-20T04:38:54.640Z,98.90
2019-04-20T04:41:24.294Z,99.00
2019-04-20T04:44:00.640Z,98.50
2019-04-20T04:46:05.813Z,98.30
2019-04-20T04:48:41.100Z,98.10
2019-04-20T04:51:16.757Z,97.90
2019-04-20T04:53:51.108Z,97.70
2019-04-20T04:56:16.303Z,97.40
2019-04-20T04:58:44.610Z,96.80
2019-04-20T05:01:21.694Z,96.70
2019-04-20T05:04:19.093Z,96.70
2019-04-20T05:06:34.368Z,96.10
2019-04-20T05:09:00.214Z,95.10
2019-04-20T05:11:27.822Z,94.80
2019-04-20T05:14:03.599Z,93.00
2019-04-20T05:16:52.042Z,92.10
2019-04-20T05:19:23.436Z,92.30
2019-04-20T05:22:08.215Z,92.10
2019-04-20T05:24:48.449Z,92.00
2019-04-20T05:27:34.821Z,91.00
2019-04-20T05:29:44.775Z,90.00
2019-04-20T05:32:23.540Z,89.80
2019-04-20T05:35:12.062Z,90.60
2019-04-20T05:37:41.935Z,89.00
2019-04-20T05:40:20.576Z,89.20
2019-04-20T05:42:54.485Z,90.00
2019-04-20T05:45:22.010Z,87.40
2019-04-20T05:47:55.123Z,87.70
2019-04-20T05:50:28.920Z,86.60
2019-04-20T05:53:01.697Z,86.80
2019-04-20T05:55:35.961Z,86.90
2019-04-20T05:58:10.045Z,85.80
2019-04-20T06:00:40.577Z,85.20
2019-04-20T06:03:09.499Z,83.40
2019-04-20T06:05:45.881Z,82.70
2019-04-20T06:08:15.663Z,80.40
2019-04-20T06:10:45.580Z,80.60
2019-04-20T06:13:27.751Z,80.80
2019-04-20T06:16:38.360Z,81.20
2019-04-20T06:19:10.220Z,79.20
2019-04-20T06:21:41.736Z,79.10
2019-04-20T06:24:20.685Z,80.40
2019-04-20T06:26:53.662Z,79.80
2019-04-20T06:29:19.376Z,79.30
2019-04-20T06:31:53.482Z,77.60
2019-04-20T06:36:58.381Z,76.60
2019-04-20T06:39:40.654Z,77.40
2019-04-20T06:42:09.869Z,74.70
2019-04-20T06:44:50.851Z,75.80
2019-04-20T06:49:37.999Z,75.20
2019-04-20T06:52:32.575Z,74.00
2019-04-20T06:55:14.169Z,72.70
2019-04-20T06:57:50.763Z,71.50
2019-04-20T07:00:18.235Z,70.20
2019-04-20T07:03:04.750Z,71.60
2019-04-20T07:05:35.925Z,69.20
2019-04-20T07:08:06.985Z,68.70
2019-04-20T07:10:34.486Z,67.50
2019-04-20T07:12:55.287Z,66.70
2019-04-20T07:15:36.561Z,65.20
2019-04-20T07:18:18.638Z,64.70
2019-04-20T07:23:35.534Z,65.20
2019-04-20T07:26:06.648Z,65.20
2019-04-20T07:28:35.512Z,65.70
2019-04-20T07:31:03.739Z,63.60
2019-04-20T07:33:34.915Z,62.40
2019-04-20T07:36:05.925Z,61.90
2019-04-20T07:38:40.496Z,61.60
2019-04-20T07:41:08.954Z,58.40
2019-04-20T07:43:54.111Z,58.60
2019-04-20T07:46:21.901Z,58.40
2019-04-20T07:48:45.543Z,57.30
2019-04-20T07:51:06.886Z,58.00
2019-04-20T07:53:43.053Z,57.40
2019-04-20T07:56:25.606Z,57.80
2019-04-20T07:58:44.141Z,58.60
2019-04-20T08:01:45.426Z,59.30
2019-04-20T08:04:13.628Z,57.80
2019-04-20T08:06:42.168Z,58.00
2019-04-20T08:09:19.621Z,60.60
2019-04-20T08:12:04.883Z,59.00
2019-04-20T08:14:35.771Z,61.60
2019-04-20T08:17:14.214Z,59.50
2019-04-20T08:19:34.923Z,59.60
2019-04-20T08:22:09.494Z,58.20
2019-04-20T08:24:37.171Z,57.90
2019-04-20T08:27:00.329Z,58.80
2019-04-20T08:29:45.116Z,58.00
2019-04-20T08:32:56.696Z,57.10
2019-04-20T08:35:32.100Z,56.30
2019-04-20T08:38:35.013Z,56.10
2019-04-20T08:40:37.276Z,55.90
2019-04-20T08:43:20.101Z,56.90
2019-04-20T08:45:49.029Z,55.50
2019-04-20T08:48:18.918Z,52.80
2019-04-20T08:50:47.068Z,54.30
2019-04-20T08:55:45.051Z,52.00
2019-04-20T08:58:02.418Z,51.50
2019-04-20T09:00:39.652Z,49.50
2019-04-20T09:03:15.364Z,49.20
2019-04-20T09:05:50.000Z,49.30
2019-04-20T09:08:16.251Z,49.00
2019-04-20T09:11:01.505Z,49.50
2019-04-20T09:13:21.269Z,48.00
2019-04-20T09:15:44.718Z,46.60
2019-04-20T09:18:31.283Z,46.40
2019-04-20T09:21:01.535Z,44.80
2019-04-20T09:23:45.863Z,43.90
2019-04-20T09:26:24.692Z,42.70
2019-04-20T09:28:59.024Z,43.60
2019-04-20T09:31:35.806Z,45.10
2019-04-20T09:34:39.576Z,44.50
2019-04-20T09:37:29.616Z,45.20
2019-04-20T09:40:21.574Z,46.20
2019-04-20T09:43:06.550Z,47.10
2019-04-20T09:45:53.688Z,45.70
2019-04-20T09:48:31.308Z,46.30
2019-04-20T09:51:11.343Z,46.30
2019-04-20T09:53:36.002Z,46.10
2019-04-20T09:56:11.673Z,45.60
2019-04-20T09:58:52.991Z,45.80
2019-04-20T10:01:13.313Z,46.60
2019-04-20T10:03:31.257Z,45.70
2019-04-20T10:06:01.409Z,45.00
2019-04-20T10:08:34.919Z,43.90
2019-04-20T10:11:05.627Z,42.00
2019-04-20T10:13:36.337Z,41.00
2019-04-20T10:16:07.946Z,38.60
2019-04-20T10:18:42.507Z,38.40
2019-04-20T10:21:09.969Z,37.90
2019-04-20T10:23:40.695Z,38.40
2019-04-20T10:26:12.284Z,37.40
2019-04-20T10:28:43.633Z,38.10
2019-04-20T10:31:14.741Z,37.10
2019-04-20T10:33:45.924Z,38.10
2019-04-20T10:36:39.344Z,37.30
2019-04-20T10:39:11.045Z,37.60
2019-04-20T10:41:49.165Z,36.50
2019-04-20T10:44:14.593Z,35.50
2019-04-20T10:46:45.015Z,35.00
2019-04-20T10:49:15.465Z,36.10
2019-04-20T10:51:45.738Z,35.10
2019-04-20T10:54:16.400Z,35.60
2019-04-20T10:56:47.756Z,34.50
2019-04-20T10:59:19.332Z,35.70
2019-04-20T11:01:49.783Z,34.40
2019-04-20T11:04:20.907Z,35.70
2019-04-20T11:06:52.329Z,34.70
2019-04-20T11:09:22.751Z,35.30
2019-04-20T11:11:52.918Z,33.90
2019-04-20T11:14:29.759Z,34.60
2019-04-20T11:16:56.194Z,34.20
2019-04-20T11:19:27.415Z,35.80
2019-04-20T11:21:58.567Z,34.90
2019-04-20T11:24:30.171Z,36.50
2019-04-20T11:27:00.486Z,35.50
2019-04-20T11:29:31.901Z,34.40
2019-04-20T11:32:03.118Z,34.80
2019-04-20T11:34:38.411Z,35.50
2019-04-20T11:37:17.232Z,36.00
2019-04-20T11:39:47.492Z,34.50
2019-04-20T11:42:17.664Z,35.30
2019-04-20T11:44:48.841Z,34.20
2019-04-20T11:47:21.485Z,35.00
2019-04-20T11:49:51.860Z,35.10
2019-04-20T11:52:23.738Z,36.10
2019-04-20T11:54:54.663Z,36.30
2019-04-20T11:57:27.176Z,36.00
2019-04-20T11:59:59.378Z,34.60
2019-04-20T12:02:47.789Z,33.90
2019-04-20T12:05:27.804Z,34.20
2019-04-20T12:07:55.292Z,35.60
2019-04-20T12:10:27.981Z,34.50
2019-04-20T12:12:59.500Z,34.90
2019-04-20T12:15:34.519Z,33.30
2019-04-20T12:18:03.111Z,34.80
2019-04-20T12:20:34.545Z,34.40
2019-04-20T12:23:04.825Z,32.70
2019-04-20T12:25:36.750Z,33.80
2019-04-20T12:28:07.453Z,33.00
2019-04-20T12:30:37.837Z,33.80
2019-04-20T12:33:09.159Z,32.90
2019-04-20T12:35:40.325Z,32.50
2019-04-20T12:38:10.650Z,32.10
2019-04-20T12:40:42.013Z,31.60
2019-04-20T12:43:13.196Z,31.30
2019-04-20T12:45:44.138Z,32.30
2019-04-20T12:48:15.666Z,33.30
2019-04-20T12:50:45.946Z,32.60
2019-04-20T12:53:17.042Z,31.80
2019-04-20T12:55:48.446Z,30.00
2019-04-20T12:58:20.939Z,30.00
2019-04-20T13:00:52.591Z,32.10
2019-04-20T13:03:23.594Z,31.30
2019-04-20T13:05:54.332Z,30.70
2019-04-20T13:08:30.368Z,31.80
2019-04-20T13:11:11.048Z,32.20
2019-04-20T13:13:56.606Z,31.80
2019-04-20T13:16:34.417Z,33.00
2019-04-20T13:19:17.188Z,32.90
2019-04-20T13:21:47.398Z,32.90
2019-04-20T13:24:18.777Z,33.20
2019-04-20T13:26:49.185Z,32.80
2019-04-20T13:29:19.339Z,33.80
2019-04-20T13:31:52.071Z,34.20
2019-04-20T13:34:22.470Z,33.10
2019-04-20T13:36:52.771Z,34.20
2019-04-20T13:39:22.841Z,33.60
2019-04-20T13:42:03.419Z,34.10
2019-04-20T13:44:25.614Z,33.20
2019-04-20T13:46:56.714Z,31.40
2019-04-20T13:49:27.160Z,31.10
2019-04-20T13:51:57.277Z,32.00
2019-04-20T13:54:28.212Z,33.00
2019-04-20T13:57:00.626Z,33.50
2019-04-20T13:59:39.946Z,34.10
2019-04-20T14:02:17.159Z,34.00
2019-04-20T14:04:57.002Z,34.20
2019-04-20T14:07:27.622Z,34.30
2019-04-20T14:09:59.577Z,35.00
2019-04-20T14:12:35.084Z,35.70
2019-04-20T14:15:02.848Z,36.00
2019-04-20T14:17:33.257Z,35.50
2019-04-20T14:20:13.201Z,33.80
2019-04-20T14:22:42.989Z,33.90
2019-04-20T14:25:13.316Z,33.80
2019-04-20T14:27:44.760Z,34.90
2019-04-20T14:30:17.166Z,34.70
2019-04-20T14:32:50.417Z,34.10
2019-04-20T14:35:20.848Z,34.00
2019-04-20T14:37:52.089Z,34.10
2019-04-20T14:40:22.562Z,35.20
2019-04-20T14:42:54.817Z,35.60
2019-04-20T14:45:24.780Z,34.80
2019-04-20T14:48:07.845Z,35.20
2019-04-20T14:50:38.115Z,34.60
2019-04-20T14:53:09.511Z,35.40
2019-04-20T14:55:39.717Z,35.90
2019-04-20T14:58:29.132Z,37.60
2019-04-20T15:01:04.820Z,36.70
2019-04-20T15:03:40.989Z,36.80
2019-04-20T15:06:11.818Z,37.30
2019-04-20T15:08:42.897Z,37.10
2019-04-20T15:11:14.418Z,37.80
2019-04-20T15:13:44.862Z,39.10
2019-04-20T15:16:16.963Z,39.00
2019-04-20T15:18:52.986Z,37.80
2019-04-20T15:21:23.942Z,39.40
2019-04-20T15:23:55.340Z,39.60
2019-04-20T15:26:26.597Z,39.30
2019-04-20T15:28:57.042Z,39.30
2019-04-20T15:31:28.195Z,39.10
2019-04-20T15:33:59.090Z,38.10
2019-04-20T15:36:29.447Z,38.40
2019-04-20T15:39:01.022Z,40.30
2019-04-20T15:41:33.594Z,39.70
2019-04-20T15:44:03.909Z,40.30
2019-04-20T15:46:37.110Z,39.30
2019-04-20T15:49:08.347Z,39.50
2019-04-20T15:51:39.778Z,41.50
2019-04-20T15:54:11.412Z,40.10
2019-04-20T15:56:49.657Z,39.80
2019-04-20T15:59:14.659Z,40.10
2019-04-20T16:01:49.590Z,39.80
2019-04-20T16:04:41.192Z,40.90
2019-04-20T16:07:10.891Z,40.30
2019-04-20T16:09:42.150Z,40.90
2019-04-20T16:12:13.046Z,40.30
2019-04-20T16:14:43.852Z,40.50
2019-04-20T16:17:15.200Z,40.00
2019-04-20T16:19:54.509Z,39.00
2019-04-20T16:22:19.785Z,39.00
2019-04-20T16:24:56.089Z,40.00
2019-04-20T16:27:38.042Z,41.10
2019-04-20T16:30:09.805Z,41.20
2019-04-20T16:32:40.681Z,42.80
2019-04-20T16:35:12.246Z,43.10
2019-04-20T16:37:42.480Z,42.10
2019-04-20T16:40:13.942Z,41.70
2019-04-20T16:42:45.483Z,41.50
2019-04-20T16:45:17.239Z,42.50
2019-04-20T16:47:48.241Z,42.00
2019-04-20T16:50:19.326Z,41.90
2019-04-20T16:52:50.680Z,43.10
2019-04-20T16:55:20.967Z,43.10
2019-04-20T16:57:53.000Z,43.70
2019-04-20T17:00:23.416Z,44.20
2019-04-20T17:02:54.363Z,44.00
2019-04-20T17:05:25.572Z,44.40
2019-04-20T17:07:57.393Z,44.50
2019-04-20T17:10:28.861Z,46.20
2019-04-20T17:12:59.950Z,46.10
2019-04-20T17:15:30.206Z,45.60
2019-04-20T17:18:01.518Z,46.30
2019-04-20T17:20:32.963Z,46.20
2019-04-20T17:23:05.564Z,46.60
2019-04-20T17:25:35.866Z,46.80
2019-04-20T17:28:23.078Z,47.60
2019-04-20T17:31:15.659Z,48.50
2019-04-20T17:34:25.286Z,49.00
2019-04-20T17:36:40.464Z,49.30
2019-04-20T17:39:15.470Z,50.00
2019-04-20T17:42:03.015Z,50.10
2019-04-20T17:44:32.663Z,50.30
2019-04-20T17:47:00.599Z,51.60
2019-04-20T17:49:36.872Z,52.00
2019-04-20T17:52:22.615Z,52.10
2019-04-20T17:54:35.606Z,52.50
2019-04-20T17:57:09.015Z,53.30
2019-04-20T17:59:46.747Z,53.90
2019-04-20T18:02:53.466Z,53.40
2019-04-20T18:05:37.012Z,53.60
2019-04-20T18:08:10.223Z,54.00
2019-04-20T18:10:36.458Z,54.30
2019-04-20T18:12:56.537Z,54.80
2019-04-20T18:15:42.351Z,55.30
2019-04-20T18:18:32.075Z,55.90
2019-04-20T18:20:57.171Z,55.60
2019-04-20T18:23:34.431Z,55.20
2019-04-20T18:26:22.687Z,55.10
2019-04-20T18:28:58.064Z,55.50
2019-04-20T18:31:25.773Z,56.40
2019-04-20T18:34:06.992Z,56.00
2019-04-20T18:36:37.896Z,55.30
2019-04-20T18:39:10.262Z,55.90
2019-04-20T18:41:48.045Z,56.30
2019-04-20T18:44:12.928Z,57.00
2019-04-20T18:47:07.039Z,57.40
2019-04-20T18:49:27.170Z,57.80
2019-04-20T18:51:48.025Z,57.60
2019-04-20T18:54:23.494Z,57.80
2019-04-20T18:56:52.572Z,58.50
2019-04-20T18:59:24.393Z,59.50
2019-04-20T19:01:55.009Z,58.60
2019-04-20T19:04:25.919Z,58.70
2019-04-20T19:06:57.355Z,59.30
2019-04-20T19:09:30.429Z,60.10
2019-04-20T19:12:03.966Z,60.20
2019-04-20T19:14:51.720Z,60.00
2019-04-20T19:17:53.515Z,61.30
2019-04-20T19:20:23.367Z,61.70
2019-04-20T19:22:53.546Z,62.40
2019-04-20T19:25:30.524Z,62.90
2019-04-20T19:27:57.753Z,63.40
2019-04-20T19:30:35.481Z,63.60
2019-04-20T19:33:14.965Z,63.90
2019-04-20T19:35:41.713Z,64.70
2019-04-20T19:38:10.376Z,65.80
2019-04-20T19:40:47.778Z,66.00
2019-04-20T19:43:17.133Z,67.00
2019-04-20T19:46:07.171Z,66.70
2019-04-20T19:48:25.443Z,67.90
2019-04-20T19:51:05.815Z,67.80
2019-04-20T19:53:36.427Z,68.30
2019-04-20T19:55:59.055Z,68.00
2019-04-20T19:58:33.118Z,69.00
2019-04-20T20:00:54.210Z,69.00
2019-04-20T20:03:23.966Z,68.90
2019-04-20T20:05:56.477Z,69.00
2019-04-20T20:08:29.944Z,69.40
2019-04-20T20:11:01.336Z,69.50
2019-04-20T20:13:34.567Z,70.00
2019-04-20T20:16:10.540Z,70.90
2019-04-20T20:18:50.931Z,72.20
2019-04-20T20:21:22.596Z,73.20
2019-04-20T20:23:41.809Z,73.30
2019-04-20T20:26:20.703Z,73.20
2019-04-20T20:28:50.739Z,71.20
2019-04-20T20:31:23.372Z,69.80
2019-04-20T20:33:59.000Z,69.00
2019-04-20T20:36:23.280Z,69.60
2019-04-20T20:38:53.844Z,70.30
2019-04-20T20:41:28.960Z,70.00
2019-04-20T20:44:03.655Z,70.30
2019-04-20T20:46:34.872Z,70.00
2019-04-20T20:49:16.159Z,69.90
2019-04-20T20:52:02.472Z,70.70
2019-04-20T20:54:15.496Z,71.20
2019-04-20T20:56:46.688Z,71.50
2019-04-20T20:59:14.094Z,70.80
2019-04-20T21:01:50.388Z,70.60
2019-04-20T21:04:12.754Z,70.80
2019-04-20T21:06:42.857Z,71.10
2019-04-20T21:09:14.329Z,71.90
2019-04-20T21:11:46.382Z,72.00
2019-04-20T21:14:24.320Z,71.80
2019-04-20T21:16:58.592Z,72.20
2019-04-20T21:19:34.290Z,73.70
2019-04-20T21:22:00.004Z,73.90
2019-04-20T21:24:28.788Z,74.10
2019-04-20T21:27:06.737Z,73.70
2019-04-20T21:29:37.836Z,74.20
2019-04-20T21:32:08.663Z,74.40
2019-04-20T21:34:35.543Z,74.30
2019-04-20T21:37:11.844Z,73.00
2019-04-20T21:39:44.692Z,73.10
2019-04-20T21:42:15.914Z,70.80
2019-04-20T21:44:45.347Z,69.70
2019-04-20T21:47:21.843Z,70.20
2019-04-20T21:50:03.120Z,69.40
2019-04-20T21:52:29.908Z,68.80
2019-04-20T21:54:54.461Z,69.40
2019-04-20T21:57:26.009Z,68.60
2019-04-20T22:00:02.599Z,69.50
2019-04-20T22:02:32.735Z,69.70
2019-04-20T22:05:01.200Z,69.60
2019-04-20T22:07:32.889Z,69.50
2019-04-20T22:10:03.006Z,70.50
2019-04-20T22:12:39.687Z,71.60
2019-04-20T22:15:17.028Z,72.40
2019-04-20T22:17:40.798Z,72.90
2019-04-20T22:20:20.041Z,71.60
2019-04-20T22:23:01.127Z,72.10
2019-04-20T22:25:33.220Z,71.20
2019-04-20T22:27:48.295Z,71.90
2019-04-20T22:30:19.935Z,72.30
2019-04-20T22:32:53.234Z,73.60
2019-04-20T22:35:24.393Z,73.70
2019-04-20T22:38:07.011Z,74.70
2019-04-20T22:40:36.401Z,74.40
2019-04-20T22:43:06.485Z,74.60
2019-04-20T22:45:42.195Z,75.30
2019-04-20T22:48:12.431Z,76.90
2019-04-20T22:51:03.598Z,77.20
2019-04-20T22:53:29.864Z,76.90
2019-04-20T22:56:11.082Z,77.50
2019-04-20T22:58:28.710Z,77.50
2019-04-20T23:00:54.351Z,77.70
2019-04-20T23:03:20.932Z,77.70
2019-04-20T23:05:51.065Z,77.90
2019-04-20T23:08:22.423Z,79.00
2019-04-20T23:10:53.546Z,79.40
2019-04-20T23:13:29.445Z,80.30
2019-04-20T23:16:00.153Z,80.00
2019-04-20T23:18:28.456Z,80.60
2019-04-20T23:21:01.320Z,80.30
2019-04-20T23:23:31.007Z,81.20
2019-04-20T23:26:03.089Z,80.80
2019-04-20T23:28:33.421Z,81.30
2019-04-20T23:31:07.325Z,81.30
2019-04-20T23:33:36.087Z,80.90
2019-04-20T23:36:07.843Z,81.20
2019-04-20T23:38:38.979Z,81.60
2019-04-20T23:41:10.057Z,82.30
2019-04-20T23:43:45.287Z,82.40
2019-04-20T23:46:47.414Z,82.60
2019-04-20T23:49:32.701Z,83.40
2019-04-20T23:52:26.097Z,83.50
2019-04-20T23:54:33.654Z,84.10
2019-04-20T23:57:02.037Z,85.30
2019-04-20T23:59:39.245Z,85.90
